sensor_id;sensor_type;location;lat;lon;timestamp;P1;durP1;ratioP1;P2;durP2;ratioP2
61385;SDS011;47256;18.904;-99.054;2023-01-10T00:01:27;23.23;;;7.68;;
61385;SDS011;47256;18.904;-99.054;2023-01-10T00:03:56;26.95;;;8.52;;
61385;SDS011;47256;18.904;-99.054;2023-01-10T00:06:23;16.90;;;6.65;;
61385;SDS011;47256;18.904;-99.054;2023-01-10T00:08:50;16.33;;;6.63;;
61385;SDS011;47256;18.904;-99.054;2023-01-10T00:11:18;18.02;;;7.22;;
61385;SDS011;47256;18.904;-99.054;2023-01-10T00:14:04;11.32;;;6.32;;
61385;SDS011;47256;18.904;-99.054;2023-01-10T00:16:31;28.10;;;8.23;;
61385;SDS011;47256;18.904;-99.054;2023-01-10T00:18:58;14.57;;;7.45;;
61385;SDS011;47256;18.904;-99.054;2023-01-10T00:21:26;13.43;;;6.38;;
61385;SDS011;47256;18.904;-99.054;2023-01-10T00:23:56;17.42;;;7.63;;
61385;SDS011;47256;18.904;-99.054;2023-01-10T00:26:33;16.48;;;7.85;;
61385;SDS011;47256;18.904;-99.054;2023-01-10T00:29:00;11.85;;;7.10;;
61385;SDS011;47256;18.904;-99.054;2023-01-10T00:31:28;16.08;;;7.72;;
61385;SDS011;47256;18.904;-99.054;2023-01-10T00:33:56;29.20;;;6.93;;
61385;SDS011;47256;18.904;-99.054;2023-01-10T00:36:23;18.92;;;8.85;;
61385;SDS011;47256;18.904;-99.054;2023-01-10T00:38:51;36.30;;;12.88;;
61385;SDS011;47256;18.904;-99.054;2023-01-10T00:41:18;33.25;;;12.52;;
61385;SDS011;47256;18.904;-99.054;2023-01-10T00:44:11;23.98;;;9.35;;
61385;SDS011;47256;18.904;-99.054;2023-01-10T00:46:38;22.60;;;9.55;;
61385;SDS011;47256;18.904;-99.054;2023-01-10T00:49:05;25.77;;;10.02;;
61385;SDS011;47256;18.904;-99.054;2023-01-10T00:51:33;27.85;;;9.35;;
61385;SDS011;47256;18.904;-99.054;2023-01-10T00:54:01;23.13;;;10.13;;
61385;SDS011;47256;18.904;-99.054;2023-01-10T00:56:29;21.60;;;9.75;;
61385;SDS011;47256;18.904;-99.054;2023-01-10T00:58:56;33.15;;;15.27;;
61385;SDS011;47256;18.904;-99.054;2023-01-10T01:01:23;23.70;;;12.65;;
61385;SDS011;47256;18.904;-99.054;2023-01-10T01:03:52;17.88;;;9.55;;
61385;SDS011;47256;18.904;-99.054;2023-01-10T01:06:19;20.90;;;8.95;;
61385;SDS011;47256;18.904;-99.054;2023-01-10T01:08:47;16.02;;;9.32;;
61385;SDS011;47256;18.904;-99.054;2023-01-10T01:11:14;21.90;;;9.40;;
61385;SDS011;47256;18.904;-99.054;2023-01-10T01:13:42;32.75;;;9.77;;
61385;SDS011;47256;18.904;-99.054;2023-01-10T01:16:09;20.00;;;8.35;;
61385;SDS011;47256;18.904;-99.054;2023-01-10T01:18:36;14.70;;;7.90;;
61385;SDS011;47256;18.904;-99.054;2023-01-10T01:21:04;25.05;;;9.30;;
61385;SDS011;47256;18.904;-99.054;2023-01-10T01:23:32;33.05;;;11.73;;
61385;SDS011;47256;18.904;-99.054;2023-01-10T01:26:00;25.40;;;9.80;;
61385;SDS011;47256;18.904;-99.054;2023-01-10T01:28:28;41.88;;;11.57;;
61385;SDS011;47256;18.904;-99.054;2023-01-10T01:30:55;78.47;;;22.35;;
61385;SDS011;47256;18.904;-99.054;2023-01-10T01:33:22;89.15;;;27.50;;
61385;SDS011;47256;18.904;-99.054;2023-01-10T01:35:49;95.05;;;29.85;;
61385;SDS011;47256;18.904;-99.054;2023-01-10T01:38:17;50.50;;;18.80;;
61385;SDS011;47256;18.904;-99.054;2023-01-10T01:40:44;98.97;;;25.05;;
61385;SDS011;47256;18.904;-99.054;2023-01-10T01:43:26;74.72;;;23.63;;
61385;SDS011;47256;18.904;-99.054;2023-01-10T01:45:55;103.32;;;35.20;;
61385;SDS011;47256;18.904;-99.054;2023-01-10T01:48:33;101.40;;;35.58;;
61385;SDS011;47256;18.904;-99.054;2023-01-10T01:56:41;43.40;;;17.03;;
61385;SDS011;47256;18.904;-99.054;2023-01-10T01:59:19;38.78;;;12.63;;
61385;SDS011;47256;18.904;-99.054;2023-01-10T02:02:16;21.05;;;9.82;;
61385;SDS011;47256;18.904;-99.054;2023-01-10T02:04:51;32.80;;;10.48;;
61385;SDS011;47256;18.904;-99.054;2023-01-10T02:07:30;46.72;;;14.85;;
61385;SDS011;47256;18.904;-99.054;2023-01-10T02:10:05;31.25;;;11.68;;
61385;SDS011;47256;18.904;-99.054;2023-01-10T02:12:43;42.95;;;13.18;;
61385;SDS011;47256;18.904;-99.054;2023-01-10T02:15:12;43.67;;;15.38;;
61385;SDS011;47256;18.904;-99.054;2023-01-10T02:17:42;75.72;;;23.90;;
61385;SDS011;47256;18.904;-99.054;2023-01-10T02:20:12;177.20;;;56.17;;
61385;SDS011;47256;18.904;-99.054;2023-01-10T02:28:48;238.10;;;70.07;;
61385;SDS011;47256;18.904;-99.054;2023-01-10T02:39:57;132.43;;;45.67;;
61385;SDS011;47256;18.904;-99.054;2023-01-10T02:42:45;142.85;;;44.55;;
61385;SDS011;47256;18.904;-99.054;2023-01-10T02:48:41;90.20;;;28.92;;
61385;SDS011;47256;18.904;-99.054;2023-01-10T02:51:18;114.13;;;37.00;;
61385;SDS011;47256;18.904;-99.054;2023-01-10T02:54:08;129.80;;;42.33;;
61385;SDS011;47256;18.904;-99.054;2023-01-10T03:05:26;54.35;;;20.45;;
61385;SDS011;47256;18.904;-99.054;2023-01-10T03:11:19;51.35;;;17.08;;
61385;SDS011;47256;18.904;-99.054;2023-01-10T03:14:05;43.70;;;16.60;;
61385;SDS011;47256;18.904;-99.054;2023-01-10T03:16:49;37.92;;;14.05;;
61385;SDS011;47256;18.904;-99.054;2023-01-10T03:19:25;38.58;;;14.85;;
61385;SDS011;47256;18.904;-99.054;2023-01-10T03:21:57;46.35;;;15.52;;
61385;SDS011;47256;18.904;-99.054;2023-01-10T03:24:37;32.75;;;13.48;;
61385;SDS011;47256;18.904;-99.054;2023-01-10T03:29:48;47.60;;;15.73;;
61385;SDS011;47256;18.904;-99.054;2023-01-10T03:32:23;30.85;;;14.32;;
61385;SDS011;47256;18.904;-99.054;2023-01-10T03:34:54;46.63;;;12.98;;
61385;SDS011;47256;18.904;-99.054;2023-01-10T03:42:53;23.67;;;10.30;;
61385;SDS011;47256;18.904;-99.054;2023-01-10T03:48:26;32.08;;;10.57;;
61385;SDS011;47256;18.904;-99.054;2023-01-10T03:50:57;15.48;;;8.38;;
61385;SDS011;47256;18.904;-99.054;2023-01-10T03:53:33;24.45;;;8.98;;
61385;SDS011;47256;18.904;-99.054;2023-01-10T03:56:03;26.40;;;9.63;;
61385;SDS011;47256;18.904;-99.054;2023-01-10T03:58:32;23.33;;;10.50;;
61385;SDS011;47256;18.904;-99.054;2023-01-10T04:00:59;27.67;;;11.57;;
61385;SDS011;47256;18.904;-99.054;2023-01-10T04:03:36;22.20;;;10.27;;
61385;SDS011;47256;18.904;-99.054;2023-01-10T04:06:03;17.83;;;10.40;;
61385;SDS011;47256;18.904;-99.054;2023-01-10T04:08:33;22.95;;;10.90;;
61385;SDS011;47256;18.904;-99.054;2023-01-10T04:11:00;37.63;;;11.88;;
61385;SDS011;47256;18.904;-99.054;2023-01-10T04:13:27;23.63;;;10.30;;
61385;SDS011;47256;18.904;-99.054;2023-01-10T04:15:55;24.02;;;11.70;;
61385;SDS011;47256;18.904;-99.054;2023-01-10T04:18:27;24.92;;;10.75;;
61385;SDS011;47256;18.904;-99.054;2023-01-10T04:20:54;25.50;;;10.80;;
61385;SDS011;47256;18.904;-99.054;2023-01-10T04:23:22;22.60;;;9.52;;
61385;SDS011;47256;18.904;-99.054;2023-01-10T04:25:50;17.55;;;10.05;;
61385;SDS011;47256;18.904;-99.054;2023-01-10T04:28:18;20.33;;;8.43;;
61385;SDS011;47256;18.904;-99.054;2023-01-10T04:30:45;21.52;;;9.13;;
61385;SDS011;47256;18.904;-99.054;2023-01-10T04:33:13;22.92;;;9.02;;
61385;SDS011;47256;18.904;-99.054;2023-01-10T04:35:45;17.90;;;8.52;;
61385;SDS011;47256;18.904;-99.054;2023-01-10T04:38:17;21.60;;;8.77;;
61385;SDS011;47256;18.904;-99.054;2023-01-10T04:40:50;23.15;;;8.63;;
61385;SDS011;47256;18.904;-99.054;2023-01-10T04:43:23;18.95;;;7.93;;
61385;SDS011;47256;18.904;-99.054;2023-01-10T04:45:51;29.15;;;8.68;;
61385;SDS011;47256;18.904;-99.054;2023-01-10T04:48:19;12.35;;;7.53;;
61385;SDS011;47256;18.904;-99.054;2023-01-10T04:50:50;19.88;;;8.07;;
61385;SDS011;47256;18.904;-99.054;2023-01-10T04:53:19;23.35;;;8.75;;
61385;SDS011;47256;18.904;-99.054;2023-01-10T04:55:47;22.65;;;8.20;;
61385;SDS011;47256;18.904;-99.054;2023-01-10T04:58:15;19.92;;;8.27;;
61385;SDS011;47256;18.904;-99.054;2023-01-10T05:00:43;20.73;;;8.05;;
61385;SDS011;47256;18.904;-99.054;2023-01-10T05:03:34;21.67;;;8.13;;
61385;SDS011;47256;18.904;-99.054;2023-01-10T05:06:02;15.75;;;8.48;;
61385;SDS011;47256;18.904;-99.054;2023-01-10T05:08:31;20.52;;;7.88;;
61385;SDS011;47256;18.904;-99.054;2023-01-10T05:10:59;13.45;;;6.35;;
61385;SDS011;47256;18.904;-99.054;2023-01-10T05:13:27;17.90;;;7.80;;
61385;SDS011;47256;18.904;-99.054;2023-01-10T05:15:54;24.08;;;8.15;;
61385;SDS011;47256;18.904;-99.054;2023-01-10T05:18:23;15.60;;;8.15;;
61385;SDS011;47256;18.904;-99.054;2023-01-10T05:21:04;16.00;;;7.55;;
61385;SDS011;47256;18.904;-99.054;2023-01-10T05:23:33;18.55;;;7.03;;
61385;SDS011;47256;18.904;-99.054;2023-01-10T05:26:05;19.17;;;8.52;;
61385;SDS011;47256;18.904;-99.054;2023-01-10T05:28:34;16.58;;;8.30;;
61385;SDS011;47256;18.904;-99.054;2023-01-10T05:31:06;17.23;;;8.05;;
61385;SDS011;47256;18.904;-99.054;2023-01-10T05:33:35;18.77;;;7.63;;
61385;SDS011;47256;18.904;-99.054;2023-01-10T05:36:03;19.23;;;8.43;;
61385;SDS011;47256;18.904;-99.054;2023-01-10T05:38:32;15.10;;;7.35;;
61385;SDS011;47256;18.904;-99.054;2023-01-10T05:43:53;17.85;;;7.25;;
61385;SDS011;47256;18.904;-99.054;2023-01-10T05:46:21;12.70;;;6.72;;
61385;SDS011;47256;18.904;-99.054;2023-01-10T05:48:48;15.75;;;7.13;;
61385;SDS011;47256;18.904;-99.054;2023-01-10T05:51:18;12.95;;;7.07;;
61385;SDS011;47256;18.904;-99.054;2023-01-10T05:53:45;19.70;;;7.80;;
61385;SDS011;47256;18.904;-99.054;2023-01-10T05:56:13;12.88;;;6.28;;
61385;SDS011;47256;18.904;-99.054;2023-01-10T05:58:40;12.25;;;7.03;;
61385;SDS011;47256;18.904;-99.054;2023-01-10T06:01:10;12.20;;;7.05;;
61385;SDS011;47256;18.904;-99.054;2023-01-10T06:03:38;10.95;;;6.07;;
61385;SDS011;47256;18.904;-99.054;2023-01-10T06:06:06;19.98;;;7.45;;
61385;SDS011;47256;18.904;-99.054;2023-01-10T06:08:33;16.02;;;6.55;;
61385;SDS011;47256;18.904;-99.054;2023-01-10T06:11:02;11.48;;;6.28;;
61385;SDS011;47256;18.904;-99.054;2023-01-10T06:13:30;15.23;;;6.47;;
61385;SDS011;47256;18.904;-99.054;2023-01-10T06:15:58;12.25;;;6.65;;
61385;SDS011;47256;18.904;-99.054;2023-01-10T06:18:26;13.95;;;7.53;;
61385;SDS011;47256;18.904;-99.054;2023-01-10T06:20:53;12.35;;;6.30;;
61385;SDS011;47256;18.904;-99.054;2023-01-10T06:23:21;13.75;;;6.03;;
61385;SDS011;47256;18.904;-99.054;2023-01-10T06:25:49;15.52;;;6.47;;
61385;SDS011;47256;18.904;-99.054;2023-01-10T06:28:16;11.63;;;5.63;;
61385;SDS011;47256;18.904;-99.054;2023-01-10T06:30:43;19.10;;;6.97;;
61385;SDS011;47256;18.904;-99.054;2023-01-10T06:33:11;11.95;;;6.25;;
61385;SDS011;47256;18.904;-99.054;2023-01-10T06:35:42;8.77;;;6.45;;
61385;SDS011;47256;18.904;-99.054;2023-01-10T06:38:11;12.75;;;6.35;;
61385;SDS011;47256;18.904;-99.054;2023-01-10T06:40:39;11.75;;;6.40;;
61385;SDS011;47256;18.904;-99.054;2023-01-10T06:43:07;16.92;;;7.15;;
61385;SDS011;47256;18.904;-99.054;2023-01-10T06:45:35;11.70;;;6.72;;
61385;SDS011;47256;18.904;-99.054;2023-01-10T06:48:03;10.93;;;7.13;;
61385;SDS011;47256;18.904;-99.054;2023-01-10T06:50:30;12.95;;;7.03;;
61385;SDS011;47256;18.904;-99.054;2023-01-10T06:52:58;21.58;;;7.68;;
61385;SDS011;47256;18.904;-99.054;2023-01-10T06:55:27;16.85;;;7.50;;
61385;SDS011;47256;18.904;-99.054;2023-01-10T06:57:56;14.68;;;6.93;;
61385;SDS011;47256;18.904;-99.054;2023-01-10T07:00:28;14.13;;;6.50;;
61385;SDS011;47256;18.904;-99.054;2023-01-10T07:02:59;15.15;;;7.22;;
61385;SDS011;47256;18.904;-99.054;2023-01-10T07:05:29;21.08;;;8.05;;
61385;SDS011;47256;18.904;-99.054;2023-01-10T07:07:56;11.63;;;6.35;;
61385;SDS011;47256;18.904;-99.054;2023-01-10T07:10:26;13.00;;;7.57;;
61385;SDS011;47256;18.904;-99.054;2023-01-10T07:12:54;9.32;;;5.68;;
61385;SDS011;47256;18.904;-99.054;2023-01-10T07:15:21;17.77;;;7.72;;
61385;SDS011;47256;18.904;-99.054;2023-01-10T07:17:49;15.05;;;7.93;;
61385;SDS011;47256;18.904;-99.054;2023-01-10T07:20:16;19.33;;;7.82;;
61385;SDS011;47256;18.904;-99.054;2023-01-10T07:22:51;17.75;;;8.57;;
61385;SDS011;47256;18.904;-99.054;2023-01-10T07:25:24;19.67;;;6.15;;
61385;SDS011;47256;18.904;-99.054;2023-01-10T07:27:53;19.95;;;7.45;;
61385;SDS011;47256;18.904;-99.054;2023-01-10T07:30:21;12.77;;;6.65;;
61385;SDS011;47256;18.904;-99.054;2023-01-10T07:32:53;14.70;;;7.05;;
61385;SDS011;47256;18.904;-99.054;2023-01-10T07:35:21;16.17;;;7.53;;
61385;SDS011;47256;18.904;-99.054;2023-01-10T07:37:50;19.95;;;7.00;;
61385;SDS011;47256;18.904;-99.054;2023-01-10T07:40:18;15.10;;;7.95;;
61385;SDS011;47256;18.904;-99.054;2023-01-10T07:42:46;14.80;;;7.93;;
61385;SDS011;47256;18.904;-99.054;2023-01-10T07:45:13;14.35;;;7.72;;
61385;SDS011;47256;18.904;-99.054;2023-01-10T07:47:41;18.27;;;7.63;;
61385;SDS011;47256;18.904;-99.054;2023-01-10T07:50:08;15.82;;;6.95;;
61385;SDS011;47256;18.904;-99.054;2023-01-10T07:52:36;12.13;;;6.43;;
61385;SDS011;47256;18.904;-99.054;2023-01-10T07:55:04;12.43;;;7.00;;
61385;SDS011;47256;18.904;-99.054;2023-01-10T07:57:32;23.65;;;7.88;;
61385;SDS011;47256;18.904;-99.054;2023-01-10T07:59:59;16.05;;;7.43;;
61385;SDS011;47256;18.904;-99.054;2023-01-10T08:02:27;14.45;;;8.18;;
61385;SDS011;47256;18.904;-99.054;2023-01-10T08:04:55;15.70;;;7.65;;
61385;SDS011;47256;18.904;-99.054;2023-01-10T08:07:23;19.67;;;9.13;;
61385;SDS011;47256;18.904;-99.054;2023-01-10T08:09:50;26.13;;;9.52;;
61385;SDS011;47256;18.904;-99.054;2023-01-10T08:12:17;23.20;;;9.35;;
61385;SDS011;47256;18.904;-99.054;2023-01-10T08:14:45;22.85;;;9.25;;
61385;SDS011;47256;18.904;-99.054;2023-01-10T08:17:13;21.00;;;9.60;;
61385;SDS011;47256;18.904;-99.054;2023-01-10T08:19:40;16.48;;;8.20;;
61385;SDS011;47256;18.904;-99.054;2023-01-10T08:22:07;21.05;;;8.98;;
61385;SDS011;47256;18.904;-99.054;2023-01-10T08:24:35;27.67;;;8.25;;
61385;SDS011;47256;18.904;-99.054;2023-01-10T08:27:02;14.35;;;8.40;;
61385;SDS011;47256;18.904;-99.054;2023-01-10T08:29:30;32.17;;;9.40;;
61385;SDS011;47256;18.904;-99.054;2023-01-10T08:31:57;18.65;;;8.23;;
61385;SDS011;47256;18.904;-99.054;2023-01-10T08:34:25;19.35;;;8.68;;
61385;SDS011;47256;18.904;-99.054;2023-01-10T08:36:53;24.83;;;7.57;;
61385;SDS011;47256;18.904;-99.054;2023-01-10T08:39:20;14.65;;;7.65;;
61385;SDS011;47256;18.904;-99.054;2023-01-10T08:41:48;19.48;;;7.97;;
61385;SDS011;47256;18.904;-99.054;2023-01-10T08:44:16;14.85;;;8.00;;
61385;SDS011;47256;18.904;-99.054;2023-01-10T08:46:43;17.98;;;7.97;;
61385;SDS011;47256;18.904;-99.054;2023-01-10T08:49:11;14.00;;;7.78;;
61385;SDS011;47256;18.904;-99.054;2023-01-10T08:51:38;14.88;;;6.72;;
61385;SDS011;47256;18.904;-99.054;2023-01-10T08:54:06;14.88;;;7.78;;
61385;SDS011;47256;18.904;-99.054;2023-01-10T08:56:33;13.35;;;6.28;;
61385;SDS011;47256;18.904;-99.054;2023-01-10T08:59:02;8.07;;;5.30;;
61385;SDS011;47256;18.904;-99.054;2023-01-10T09:01:30;15.07;;;6.07;;
61385;SDS011;47256;18.904;-99.054;2023-01-10T09:03:58;18.48;;;6.57;;
61385;SDS011;47256;18.904;-99.054;2023-01-10T09:06:25;11.23;;;5.72;;
61385;SDS011;47256;18.904;-99.054;2023-01-10T09:08:53;14.90;;;6.35;;
61385;SDS011;47256;18.904;-99.054;2023-01-10T09:11:20;14.10;;;6.18;;
61385;SDS011;47256;18.904;-99.054;2023-01-10T09:13:48;27.35;;;6.50;;
61385;SDS011;47256;18.904;-99.054;2023-01-10T09:16:16;22.58;;;6.88;;
61385;SDS011;47256;18.904;-99.054;2023-01-10T09:18:44;10.63;;;6.47;;
61385;SDS011;47256;18.904;-99.054;2023-01-10T09:21:12;7.75;;;5.65;;
61385;SDS011;47256;18.904;-99.054;2023-01-10T09:23:40;11.95;;;6.25;;
61385;SDS011;47256;18.904;-99.054;2023-01-10T09:26:08;14.75;;;6.10;;
61385;SDS011;47256;18.904;-99.054;2023-01-10T09:28:35;13.45;;;5.97;;
61385;SDS011;47256;18.904;-99.054;2023-01-10T09:31:03;13.32;;;6.38;;
61385;SDS011;47256;18.904;-99.054;2023-01-10T09:33:34;9.52;;;5.20;;
61385;SDS011;47256;18.904;-99.054;2023-01-10T09:36:01;17.10;;;5.97;;
61385;SDS011;47256;18.904;-99.054;2023-01-10T09:38:29;11.38;;;5.55;;
61385;SDS011;47256;18.904;-99.054;2023-01-10T09:44:06;10.68;;;6.05;;
61385;SDS011;47256;18.904;-99.054;2023-01-10T09:52:30;14.20;;;6.97;;
61385;SDS011;47256;18.904;-99.054;2023-01-10T09:55:06;14.80;;;6.82;;
61385;SDS011;47256;18.904;-99.054;2023-01-10T09:57:46;19.15;;;7.28;;
61385;SDS011;47256;18.904;-99.054;2023-01-10T10:00:20;15.43;;;8.00;;
61385;SDS011;47256;18.904;-99.054;2023-01-10T10:03:00;15.90;;;8.35;;
61385;SDS011;47256;18.904;-99.054;2023-01-10T10:05:41;16.60;;;8.13;;
61385;SDS011;47256;18.904;-99.054;2023-01-10T10:08:12;18.80;;;8.95;;
61385;SDS011;47256;18.904;-99.054;2023-01-10T10:18:48;20.45;;;9.70;;
61385;SDS011;47256;18.904;-99.054;2023-01-10T10:24:43;28.25;;;12.70;;
61385;SDS011;47256;18.904;-99.054;2023-01-10T10:30:25;47.15;;;18.20;;
61385;SDS011;47256;18.904;-99.054;2023-01-10T10:38:38;38.55;;;13.45;;
61385;SDS011;47256;18.904;-99.054;2023-01-10T10:41:14;29.25;;;11.38;;
61385;SDS011;47256;18.904;-99.054;2023-01-10T10:43:58;37.00;;;13.85;;
61385;SDS011;47256;18.904;-99.054;2023-01-10T10:46:32;28.35;;;11.05;;
61385;SDS011;47256;18.904;-99.054;2023-01-10T10:49:03;29.65;;;12.27;;
61385;SDS011;47256;18.904;-99.054;2023-01-10T10:51:46;36.15;;;12.00;;
61385;SDS011;47256;18.904;-99.054;2023-01-10T10:54:19;28.23;;;11.15;;
61385;SDS011;47256;18.904;-99.054;2023-01-10T10:56:48;30.35;;;10.98;;
61385;SDS011;47256;18.904;-99.054;2023-01-10T10:59:20;42.47;;;12.93;;
61385;SDS011;47256;18.904;-99.054;2023-01-10T11:01:48;38.80;;;11.13;;
61385;SDS011;47256;18.904;-99.054;2023-01-10T11:04:18;34.40;;;12.10;;
61385;SDS011;47256;18.904;-99.054;2023-01-10T11:06:48;28.58;;;10.75;;
61385;SDS011;47256;18.904;-99.054;2023-01-10T11:09:20;28.85;;;9.65;;
61385;SDS011;47256;18.904;-99.054;2023-01-10T11:12:13;16.75;;;8.35;;
61385;SDS011;47256;18.904;-99.054;2023-01-10T11:14:49;21.25;;;8.98;;
61385;SDS011;47256;18.904;-99.054;2023-01-10T11:20:15;30.05;;;8.20;;
61385;SDS011;47256;18.904;-99.054;2023-01-10T11:22:50;21.10;;;7.25;;
61385;SDS011;47256;18.904;-99.054;2023-01-10T11:25:21;20.23;;;7.00;;
61385;SDS011;47256;18.904;-99.054;2023-01-10T11:27:50;18.02;;;8.05;;
61385;SDS011;47256;18.904;-99.054;2023-01-10T11:30:24;17.10;;;7.50;;
61385;SDS011;47256;18.904;-99.054;2023-01-10T11:33:05;19.25;;;7.85;;
61385;SDS011;47256;18.904;-99.054;2023-01-10T11:35:52;25.27;;;7.90;;
61385;SDS011;47256;18.904;-99.054;2023-01-10T11:38:40;15.05;;;6.72;;
61385;SDS011;47256;18.904;-99.054;2023-01-10T11:43:45;16.55;;;8.63;;
61385;SDS011;47256;18.904;-99.054;2023-01-10T11:46:14;19.00;;;8.32;;
61385;SDS011;47256;18.904;-99.054;2023-01-10T11:54:04;19.45;;;7.63;;
61385;SDS011;47256;18.904;-99.054;2023-01-10T11:56:36;20.65;;;7.57;;
61385;SDS011;47256;18.904;-99.054;2023-01-10T11:59:07;16.27;;;7.40;;
61385;SDS011;47256;18.904;-99.054;2023-01-10T12:01:42;23.48;;;9.07;;
61385;SDS011;47256;18.904;-99.054;2023-01-10T12:04:17;25.85;;;9.15;;
61385;SDS011;47256;18.904;-99.054;2023-01-10T12:06:47;22.38;;;10.18;;
61385;SDS011;47256;18.904;-99.054;2023-01-10T12:12:19;16.98;;;9.13;;
61385;SDS011;47256;18.904;-99.054;2023-01-10T12:14:47;14.55;;;8.18;;
61385;SDS011;47256;18.904;-99.054;2023-01-10T12:17:29;23.15;;;9.23;;
61385;SDS011;47256;18.904;-99.054;2023-01-10T12:19:59;19.25;;;8.35;;
61385;SDS011;47256;18.904;-99.054;2023-01-10T12:22:32;22.55;;;8.38;;
61385;SDS011;47256;18.904;-99.054;2023-01-10T12:25:29;18.88;;;8.07;;
61385;SDS011;47256;18.904;-99.054;2023-01-10T12:28:05;16.63;;;8.75;;
61385;SDS011;47256;18.904;-99.054;2023-01-10T12:30:45;32.03;;;9.40;;
61385;SDS011;47256;18.904;-99.054;2023-01-10T12:33:23;25.02;;;8.35;;
61385;SDS011;47256;18.904;-99.054;2023-01-10T12:36:01;43.83;;;13.23;;
61385;SDS011;47256;18.904;-99.054;2023-01-10T12:44:34;47.15;;;16.70;;
61385;SDS011;47256;18.904;-99.054;2023-01-10T12:55:22;46.95;;;15.00;;
61385;SDS011;47256;18.904;-99.054;2023-01-10T12:57:59;35.47;;;12.20;;
61385;SDS011;47256;18.904;-99.054;2023-01-10T13:05:37;33.30;;;10.82;;
61385;SDS011;47256;18.904;-99.054;2023-01-10T13:08:06;17.50;;;8.50;;
61385;SDS011;47256;18.904;-99.054;2023-01-10T13:10:42;24.35;;;9.10;;
61385;SDS011;47256;18.904;-99.054;2023-01-10T13:13:18;34.72;;;8.95;;
61385;SDS011;47256;18.904;-99.054;2023-01-10T13:18:30;21.52;;;9.60;;
61385;SDS011;47256;18.904;-99.054;2023-01-10T13:21:04;20.75;;;8.35;;
61385;SDS011;47256;18.904;-99.054;2023-01-10T13:23:39;47.88;;;12.68;;
61385;SDS011;47256;18.904;-99.054;2023-01-10T13:26:17;53.13;;;14.23;;
61385;SDS011;47256;18.904;-99.054;2023-01-10T13:28:52;42.95;;;14.00;;
61385;SDS011;47256;18.904;-99.054;2023-01-10T13:34:17;28.15;;;8.40;;
61385;SDS011;47256;18.904;-99.054;2023-01-10T13:36:50;36.40;;;9.73;;
61385;SDS011;47256;18.904;-99.054;2023-01-10T13:52:52;21.67;;;8.10;;
61385;SDS011;47256;18.904;-99.054;2023-01-10T13:55:30;24.13;;;7.78;;
61385;SDS011;47256;18.904;-99.054;2023-01-10T14:04:26;29.60;;;8.40;;
61385;SDS011;47256;18.904;-99.054;2023-01-10T14:07:05;26.70;;;8.77;;
61385;SDS011;47256;18.904;-99.054;2023-01-10T14:09:47;18.05;;;7.32;;
61385;SDS011;47256;18.904;-99.054;2023-01-10T14:15:02;23.25;;;7.55;;
61385;SDS011;47256;18.904;-99.054;2023-01-10T14:17:34;29.30;;;8.82;;
61385;SDS011;47256;18.904;-99.054;2023-01-10T14:25:43;40.00;;;14.80;;
61385;SDS011;47256;18.904;-99.054;2023-01-10T14:28:28;34.45;;;14.05;;
61385;SDS011;47256;18.904;-99.054;2023-01-10T14:33:31;35.97;;;13.43;;
61385;SDS011;47256;18.904;-99.054;2023-01-10T14:36:02;29.23;;;14.80;;
61385;SDS011;47256;18.904;-99.054;2023-01-10T14:38:35;40.92;;;15.48;;
61385;SDS011;47256;18.904;-99.054;2023-01-10T14:41:38;35.22;;;14.48;;
61385;SDS011;47256;18.904;-99.054;2023-01-10T14:44:24;32.88;;;14.00;;
61385;SDS011;47256;18.904;-99.054;2023-01-10T14:46:58;30.95;;;15.07;;
61385;SDS011;47256;18.904;-99.054;2023-01-10T14:49:29;38.33;;;13.75;;
61385;SDS011;47256;18.904;-99.054;2023-01-10T14:52:11;38.45;;;13.98;;
61385;SDS011;47256;18.904;-99.054;2023-01-10T14:54:41;38.58;;;14.60;;
61385;SDS011;47256;18.904;-99.054;2023-01-10T14:57:18;35.30;;;12.77;;
61385;SDS011;47256;18.904;-99.054;2023-01-10T14:59:48;27.92;;;12.35;;
61385;SDS011;47256;18.904;-99.054;2023-01-10T15:02:20;34.92;;;13.13;;
61385;SDS011;47256;18.904;-99.054;2023-01-10T15:04:54;30.65;;;12.00;;
61385;SDS011;47256;18.904;-99.054;2023-01-10T15:07:23;36.60;;;12.35;;
61385;SDS011;47256;18.904;-99.054;2023-01-10T15:09:52;24.10;;;11.63;;
61385;SDS011;47256;18.904;-99.054;2023-01-10T15:12:24;23.13;;;10.45;;
61385;SDS011;47256;18.904;-99.054;2023-01-10T15:15:02;26.10;;;10.93;;
61385;SDS011;47256;18.904;-99.054;2023-01-10T15:17:33;21.60;;;10.13;;
61385;SDS011;47256;18.904;-99.054;2023-01-10T15:20:02;20.77;;;9.82;;
61385;SDS011;47256;18.904;-99.054;2023-01-10T15:22:31;20.83;;;9.77;;
61385;SDS011;47256;18.904;-99.054;2023-01-10T15:25:45;17.83;;;9.38;;
61385;SDS011;47256;18.904;-99.054;2023-01-10T15:28:04;19.58;;;9.52;;
61385;SDS011;47256;18.904;-99.054;2023-01-10T15:30:39;13.85;;;8.48;;
61385;SDS011;47256;18.904;-99.054;2023-01-10T15:33:14;16.25;;;9.05;;
61385;SDS011;47256;18.904;-99.054;2023-01-10T15:35:47;18.23;;;9.05;;
61385;SDS011;47256;18.904;-99.054;2023-01-10T15:38:15;19.67;;;8.85;;
61385;SDS011;47256;18.904;-99.054;2023-01-10T15:41:05;18.38;;;9.68;;
61385;SDS011;47256;18.904;-99.054;2023-01-10T15:43:33;17.67;;;9.18;;
61385;SDS011;47256;18.904;-99.054;2023-01-10T15:46:04;18.90;;;8.93;;
61385;SDS011;47256;18.904;-99.054;2023-01-10T15:48:42;22.27;;;10.23;;
61385;SDS011;47256;18.904;-99.054;2023-01-10T15:56:48;14.48;;;7.30;;
61385;SDS011;47256;18.904;-99.054;2023-01-10T15:59:40;19.88;;;7.00;;
61385;SDS011;47256;18.904;-99.054;2023-01-10T16:02:23;14.07;;;7.35;;
61385;SDS011;47256;18.904;-99.054;2023-01-10T16:04:56;17.00;;;7.28;;
61385;SDS011;47256;18.904;-99.054;2023-01-10T16:07:32;9.52;;;5.90;;
61385;SDS011;47256;18.904;-99.054;2023-01-10T16:10:11;19.90;;;7.80;;
61385;SDS011;47256;18.904;-99.054;2023-01-10T16:12:41;15.00;;;7.75;;
61385;SDS011;47256;18.904;-99.054;2023-01-10T16:15:28;14.63;;;8.77;;
61385;SDS011;47256;18.904;-99.054;2023-01-10T16:17:57;23.80;;;8.88;;
61385;SDS011;47256;18.904;-99.054;2023-01-10T16:20:46;12.45;;;7.40;;
61385;SDS011;47256;18.904;-99.054;2023-01-10T16:23:23;17.85;;;8.18;;
61385;SDS011;47256;18.904;-99.054;2023-01-10T16:25:58;14.02;;;7.55;;
61385;SDS011;47256;18.904;-99.054;2023-01-10T16:28:28;15.88;;;8.23;;
61385;SDS011;47256;18.904;-99.054;2023-01-10T16:31:01;16.48;;;8.13;;
61385;SDS011;47256;18.904;-99.054;2023-01-10T16:33:32;11.63;;;7.60;;
61385;SDS011;47256;18.904;-99.054;2023-01-10T16:36:01;19.42;;;9.05;;
61385;SDS011;47256;18.904;-99.054;2023-01-10T16:38:30;20.92;;;9.75;;
61385;SDS011;47256;18.904;-99.054;2023-01-10T16:40:58;32.40;;;11.02;;
61385;SDS011;47256;18.904;-99.054;2023-01-10T16:43:48;19.65;;;9.82;;
61385;SDS011;47256;18.904;-99.054;2023-01-10T16:46:16;15.68;;;9.45;;
61385;SDS011;47256;18.904;-99.054;2023-01-10T16:48:44;19.75;;;10.00;;
61385;SDS011;47256;18.904;-99.054;2023-01-10T16:51:14;26.75;;;8.85;;
61385;SDS011;47256;18.904;-99.054;2023-01-10T16:53:43;18.33;;;9.35;;
61385;SDS011;47256;18.904;-99.054;2023-01-10T16:56:13;22.67;;;8.50;;
61385;SDS011;47256;18.904;-99.054;2023-01-10T16:58:42;21.45;;;9.93;;
61385;SDS011;47256;18.904;-99.054;2023-01-10T17:01:12;18.80;;;9.70;;
61385;SDS011;47256;18.904;-99.054;2023-01-10T17:03:45;16.13;;;8.70;;
61385;SDS011;47256;18.904;-99.054;2023-01-10T17:06:14;12.35;;;8.30;;